sensor_id;sensor_type;location;lat;lon;timestamp;temperature;humidity
6429;DHT22;3247;48.946;10.220;2023-04-25T00:01:54;5.30;99.90
6429;DHT22;3247;48.946;10.220;2023-04-25T00:04:21;5.20;99.90
6429;DHT22;3247;48.946;10.220;2023-04-25T00:06:47;5.30;99.90
6429;DHT22;3247;48.946;10.220;2023-04-25T00:09:13;5.20;99.90
6429;DHT22;3247;48.946;10.220;2023-04-25T00:11:39;5.20;99.90
6429;DHT22;3247;48.946;10.220;2023-04-25T00:14:05;5.30;99.90
6429;DHT22;3247;48.946;10.220;2023-04-25T00:16:31;5.30;99.90
6429;DHT22;3247;48.946;10.220;2023-04-25T00:18:59;5.30;99.90
6429;DHT22;3247;48.946;10.220;2023-04-25T00:21:24;5.30;99.90
6429;DHT22;3247;48.946;10.220;2023-04-25T00:23:52;5.30;99.90
6429;DHT22;3247;48.946;10.220;2023-04-25T00:26:18;5.30;99.90
6429;DHT22;3247;48.946;10.220;2023-04-25T00:28:44;5.30;99.90
6429;DHT22;3247;48.946;10.220;2023-04-25T00:31:12;5.20;99.90
6429;DHT22;3247;48.946;10.220;2023-04-25T00:33:38;5.20;99.90
6429;DHT22;3247;48.946;10.220;2023-04-25T00:36:03;5.10;99.90
6429;DHT22;3247;48.946;10.220;2023-04-25T00:38:29;5.00;99.90
6429;DHT22;3247;48.946;10.220;2023-04-25T00:40:54;5.00;99.90
6429;DHT22;3247;48.946;10.220;2023-04-25T00:43:21;4.90;99.90
6429;DHT22;3247;48.946;10.220;2023-04-25T00:45:47;4.90;99.90
6429;DHT22;3247;48.946;10.220;2023-04-25T00:48:13;4.90;99.90
6429;DHT22;3247;48.946;10.220;2023-04-25T00:50:39;4.80;99.90
6429;DHT22;3247;48.946;10.220;2023-04-25T00:53:05;4.80;99.90
6429;DHT22;3247;48.946;10.220;2023-04-25T00:55:31;4.80;99.90
6429;DHT22;3247;48.946;10.220;2023-04-25T00:57:57;4.80;99.90
6429;DHT22;3247;48.946;10.220;2023-04-25T01:00:23;4.80;99.90
6429;DHT22;3247;48.946;10.220;2023-04-25T01:02:51;4.80;99.90
6429;DHT22;3247;48.946;10.220;2023-04-25T01:05:17;4.80;99.90
6429;DHT22;3247;48.946;10.220;2023-04-25T01:07:44;4.90;99.90
6429;DHT22;3247;48.946;10.220;2023-04-25T01:10:10;4.90;99.90
6429;DHT22;3247;48.946;10.220;2023-04-25T01:12:35;5.00;99.90
6429;DHT22;3247;48.946;10.220;2023-04-25T01:15:01;5.00;99.90
6429;DHT22;3247;48.946;10.220;2023-04-25T01:17:26;5.10;99.90
6429;DHT22;3247;48.946;10.220;2023-04-25T01:19:52;5.10;99.90
6429;DHT22;3247;48.946;10.220;2023-04-25T01:22:18;5.20;99.90
6429;DHT22;3247;48.946;10.220;2023-04-25T01:24:43;5.30;99.90
6429;DHT22;3247;48.946;10.220;2023-04-25T01:27:09;5.40;99.90
6429;DHT22;3247;48.946;10.220;2023-04-25T01:29:35;5.10;99.90
6429;DHT22;3247;48.946;10.220;2023-04-25T01:32:01;5.50;99.90
6429;DHT22;3247;48.946;10.220;2023-04-25T01:34:26;5.50;99.90
6429;DHT22;3247;48.946;10.220;2023-04-25T01:36:52;5.50;99.90
6429;DHT22;3247;48.946;10.220;2023-04-25T01:39:18;5.50;99.90
6429;DHT22;3247;48.946;10.220;2023-04-25T01:41:44;5.50;99.90
6429;DHT22;3247;48.946;10.220;2023-04-25T01:44:10;5.50;99.90
6429;DHT22;3247;48.946;10.220;2023-04-25T01:46:35;5.50;99.90
6429;DHT22;3247;48.946;10.220;2023-04-25T01:49:01;5.50;99.90
6429;DHT22;3247;48.946;10.220;2023-04-25T01:51:26;5.50;99.90
6429;DHT22;3247;48.946;10.220;2023-04-25T01:53:52;5.40;99.90
6429;DHT22;3247;48.946;10.220;2023-04-25T01:56:18;5.40;99.90
6429;DHT22;3247;48.946;10.220;2023-04-25T01:58:43;5.40;99.90
6429;DHT22;3247;48.946;10.220;2023-04-25T02:01:13;5.40;99.90
6429;DHT22;3247;48.946;10.220;2023-04-25T02:03:38;5.40;99.90
6429;DHT22;3247;48.946;10.220;2023-04-25T02:06:06;6.30;99.90
6429;DHT22;3247;48.946;10.220;2023-04-25T02:08:31;5.40;99.90
6429;DHT22;3247;48.946;10.220;2023-04-25T02:10:57;5.30;99.90
6429;DHT22;3247;48.946;10.220;2023-04-25T02:13:23;5.30;99.90
6429;DHT22;3247;48.946;10.220;2023-04-25T02:15:48;5.30;99.90
6429;DHT22;3247;48.946;10.220;2023-04-25T02:18:14;5.30;99.90
6429;DHT22;3247;48.946;10.220;2023-04-25T02:20:41;5.20;99.90
6429;DHT22;3247;48.946;10.220;2023-04-25T02:23:06;5.20;99.90
6429;DHT22;3247;48.946;10.220;2023-04-25T02:25:32;5.20;99.90
6429;DHT22;3247;48.946;10.220;2023-04-25T02:27:57;5.20;99.90
6429;DHT22;3247;48.946;10.220;2023-04-25T02:30:23;5.10;99.90
6429;DHT22;3247;48.946;10.220;2023-04-25T02:32:58;5.20;99.90
6429;DHT22;3247;48.946;10.220;2023-04-25T02:35:23;5.20;99.90
6429;DHT22;3247;48.946;10.220;2023-04-25T02:37:49;5.20;99.90
6429;DHT22;3247;48.946;10.220;2023-04-25T02:40:14;5.20;99.90
6429;DHT22;3247;48.946;10.220;2023-04-25T02:42:42;5.20;99.90
6429;DHT22;3247;48.946;10.220;2023-04-25T02:45:08;5.20;99.90
6429;DHT22;3247;48.946;10.220;2023-04-25T02:47:33;5.20;99.90
6429;DHT22;3247;48.946;10.220;2023-04-25T02:49:59;5.20;99.90
6429;DHT22;3247;48.946;10.220;2023-04-25T02:52:24;5.20;99.90
6429;DHT22;3247;48.946;10.220;2023-04-25T02:54:50;5.30;99.90
6429;DHT22;3247;48.946;10.220;2023-04-25T02:57:16;5.30;99.90
6429;DHT22;3247;48.946;10.220;2023-04-25T02:59:41;5.30;99.90
6429;DHT22;3247;48.946;10.220;2023-04-25T03:02:12;5.30;99.90
6429;DHT22;3247;48.946;10.220;2023-04-25T03:04:37;5.40;99.90
6429;DHT22;3247;48.946;10.220;2023-04-25T03:07:03;5.40;99.90
6429;DHT22;3247;48.946;10.220;2023-04-25T03:09:28;5.40;99.90
6429;DHT22;3247;48.946;10.220;2023-04-25T03:11:54;5.40;99.90
6429;DHT22;3247;48.946;10.220;2023-04-25T03:14:19;5.40;99.90
6429;DHT22;3247;48.946;10.220;2023-04-25T03:16:45;5.40;99.90
6429;DHT22;3247;48.946;10.220;2023-04-25T03:19:10;5.50;99.90
6429;DHT22;3247;48.946;10.220;2023-04-25T03:21:36;5.50;99.90
6429;DHT22;3247;48.946;10.220;2023-04-25T03:24:02;5.50;99.90
6429;DHT22;3247;48.946;10.220;2023-04-25T03:26:28;5.50;99.90
6429;DHT22;3247;48.946;10.220;2023-04-25T03:28:53;5.50;99.90
6429;DHT22;3247;48.946;10.220;2023-04-25T03:31:22;5.10;99.90
6429;DHT22;3247;48.946;10.220;2023-04-25T03:33:47;5.50;99.90
6429;DHT22;3247;48.946;10.220;2023-04-25T03:36:13;5.50;99.90
6429;DHT22;3247;48.946;10.220;2023-04-25T03:38:38;5.50;99.90
6429;DHT22;3247;48.946;10.220;2023-04-25T03:41:06;5.50;99.90
6429;DHT22;3247;48.946;10.220;2023-04-25T03:43:31;5.50;99.90
6429;DHT22;3247;48.946;10.220;2023-04-25T03:45:57;5.50;99.90
6429;DHT22;3247;48.946;10.220;2023-04-25T03:48:22;5.40;99.90
6429;DHT22;3247;48.946;10.220;2023-04-25T03:50:49;5.40;99.90
6429;DHT22;3247;48.946;10.220;2023-04-25T03:53:15;5.40;99.90
6429;DHT22;3247;48.946;10.220;2023-04-25T03:55:40;5.40;99.90
6429;DHT22;3247;48.946;10.220;2023-04-25T03:58:06;5.50;99.90
6429;DHT22;3247;48.946;10.220;2023-04-25T04:00:33;5.50;99.90
6429;DHT22;3247;48.946;10.220;2023-04-25T04:02:59;5.50;99.90
6429;DHT22;3247;48.946;10.220;2023-04-25T04:05:24;5.50;99.90
6429;DHT22;3247;48.946;10.220;2023-04-25T04:07:49;5.50;99.90
6429;DHT22;3247;48.946;10.220;2023-04-25T04:10:15;5.60;99.90
6429;DHT22;3247;48.946;10.220;2023-04-25T04:12:40;5.70;99.90
6429;DHT22;3247;48.946;10.220;2023-04-25T04:15:06;5.60;99.90
6429;DHT22;3247;48.946;10.220;2023-04-25T04:17:32;5.60;99.90
6429;DHT22;3247;48.946;10.220;2023-04-25T04:19:57;5.60;99.90
6429;DHT22;3247;48.946;10.220;2023-04-25T04:22:23;5.60;99.90
6429;DHT22;3247;48.946;10.220;2023-04-25T04:24:49;5.70;99.90
6429;DHT22;3247;48.946;10.220;2023-04-25T04:27:18;5.70;99.90
6429;DHT22;3247;48.946;10.220;2023-04-25T04:29:44;5.70;99.90
6429;DHT22;3247;48.946;10.220;2023-04-25T04:32:14;5.70;99.90
6429;DHT22;3247;48.946;10.220;2023-04-25T04:34:39;5.70;99.90
6429;DHT22;3247;48.946;10.220;2023-04-25T04:37:06;5.70;99.90
6429;DHT22;3247;48.946;10.220;2023-04-25T04:39:32;5.80;99.90
6429;DHT22;3247;48.946;10.220;2023-04-25T04:41:58;5.80;99.90
6429;DHT22;3247;48.946;10.220;2023-04-25T04:44:24;5.80;99.90
6429;DHT22;3247;48.946;10.220;2023-04-25T04:46:50;5.80;99.90
6429;DHT22;3247;48.946;10.220;2023-04-25T04:49:15;5.90;99.90
6429;DHT22;3247;48.946;10.220;2023-04-25T04:51:41;5.90;99.90
6429;DHT22;3247;48.946;10.220;2023-04-25T04:54:09;5.90;99.90
6429;DHT22;3247;48.946;10.220;2023-04-25T04:56:35;5.90;99.90
6429;DHT22;3247;48.946;10.220;2023-04-25T04:59:00;5.90;99.90
6429;DHT22;3247;48.946;10.220;2023-04-25T05:01:30;5.90;99.90
6429;DHT22;3247;48.946;10.220;2023-04-25T05:03:56;6.00;99.90
6429;DHT22;3247;48.946;10.220;2023-04-25T05:06:25;6.00;99.90
6429;DHT22;3247;48.946;10.220;2023-04-25T05:08:51;6.00;99.90
6429;DHT22;3247;48.946;10.220;2023-04-25T05:11:18;6.10;99.90
6429;DHT22;3247;48.946;10.220;2023-04-25T05:13:43;6.10;99.90
6429;DHT22;3247;48.946;10.220;2023-04-25T05:16:09;6.20;99.90
6429;DHT22;3247;48.946;10.220;2023-04-25T05:18:34;6.20;99.90
6429;DHT22;3247;48.946;10.220;2023-04-25T05:21:00;6.30;99.90
6429;DHT22;3247;48.946;10.220;2023-04-25T05:23:25;6.40;99.90
6429;DHT22;3247;48.946;10.220;2023-04-25T05:25:54;6.40;99.90
6429;DHT22;3247;48.946;10.220;2023-04-25T05:28:20;6.40;99.90
6429;DHT22;3247;48.946;10.220;2023-04-25T05:30:46;6.50;99.90
6429;DHT22;3247;48.946;10.220;2023-04-25T05:33:21;6.40;99.90
6429;DHT22;3247;48.946;10.220;2023-04-25T05:35:46;6.50;99.90
6429;DHT22;3247;48.946;10.220;2023-04-25T05:38:12;6.50;99.90
6429;DHT22;3247;48.946;10.220;2023-04-25T05:40:37;6.50;99.90
6429;DHT22;3247;48.946;10.220;2023-04-25T05:43:03;6.60;99.90
6429;DHT22;3247;48.946;10.220;2023-04-25T05:45:28;6.60;99.90
6429;DHT22;3247;48.946;10.220;2023-04-25T05:47:54;6.60;99.90
6429;DHT22;3247;48.946;10.220;2023-04-25T05:50:19;6.60;99.90
6429;DHT22;3247;48.946;10.220;2023-04-25T05:52:44;6.70;99.90
6429;DHT22;3247;48.946;10.220;2023-04-25T05:55:10;6.70;99.90
6429;DHT22;3247;48.946;10.220;2023-04-25T05:57:35;6.80;99.90
6429;DHT22;3247;48.946;10.220;2023-04-25T06:00:01;6.90;99.90
6429;DHT22;3247;48.946;10.220;2023-04-25T06:02:30;6.90;99.90
6429;DHT22;3247;48.946;10.220;2023-04-25T06:04:55;7.00;99.90
6429;DHT22;3247;48.946;10.220;2023-04-25T06:07:21;7.00;99.90
6429;DHT22;3247;48.946;10.220;2023-04-25T06:09:46;7.00;99.90
6429;DHT22;3247;48.946;10.220;2023-04-25T06:12:12;7.00;99.90
6429;DHT22;3247;48.946;10.220;2023-04-25T06:14:37;7.00;99.90
6429;DHT22;3247;48.946;10.220;2023-04-25T06:17:03;7.10;99.90
6429;DHT22;3247;48.946;10.220;2023-04-25T06:19:32;7.20;99.90
6429;DHT22;3247;48.946;10.220;2023-04-25T06:21:58;7.30;99.90
6429;DHT22;3247;48.946;10.220;2023-04-25T06:24:23;7.30;99.90
6429;DHT22;3247;48.946;10.220;2023-04-25T06:26:48;7.40;99.90
6429;DHT22;3247;48.946;10.220;2023-04-25T06:29:14;7.50;99.90
6429;DHT22;3247;48.946;10.220;2023-04-25T06:31:40;7.60;99.90
6429;DHT22;3247;48.946;10.220;2023-04-25T06:34:05;7.60;99.90
6429;DHT22;3247;48.946;10.220;2023-04-25T06:36:31;7.70;99.90
6429;DHT22;3247;48.946;10.220;2023-04-25T06:38:56;7.80;99.90
6429;DHT22;3247;48.946;10.220;2023-04-25T06:41:22;7.90;99.90
6429;DHT22;3247;48.946;10.220;2023-04-25T06:43:47;8.00;99.90
6429;DHT22;3247;48.946;10.220;2023-04-25T06:46:13;8.00;99.90
6429;DHT22;3247;48.946;10.220;2023-04-25T06:48:38;8.00;99.90
6429;DHT22;3247;48.946;10.220;2023-04-25T06:51:04;7.90;99.90
6429;DHT22;3247;48.946;10.220;2023-04-25T06:53:29;7.90;99.90
6429;DHT22;3247;48.946;10.220;2023-04-25T06:55:55;7.80;99.90
6429;DHT22;3247;48.946;10.220;2023-04-25T06:58:20;7.90;99.90
6429;DHT22;3247;48.946;10.220;2023-04-25T07:00:46;7.80;99.90
6429;DHT22;3247;48.946;10.220;2023-04-25T07:03:11;7.80;99.90
6429;DHT22;3247;48.946;10.220;2023-04-25T07:05:37;7.90;99.90
6429;DHT22;3247;48.946;10.220;2023-04-25T07:08:02;7.90;99.90
6429;DHT22;3247;48.946;10.220;2023-04-25T07:10:28;8.00;99.90
6429;DHT22;3247;48.946;10.220;2023-04-25T07:12:53;8.10;99.90
6429;DHT22;3247;48.946;10.220;2023-04-25T07:15:19;8.10;99.90
6429;DHT22;3247;48.946;10.220;2023-04-25T07:17:45;8.20;99.90
6429;DHT22;3247;48.946;10.220;2023-04-25T07:20:11;8.40;99.90
6429;DHT22;3247;48.946;10.220;2023-04-25T07:22:36;8.70;99.90
6429;DHT22;3247;48.946;10.220;2023-04-25T07:25:02;8.80;99.90
6429;DHT22;3247;48.946;10.220;2023-04-25T07:27:29;8.80;99.90
6429;DHT22;3247;48.946;10.220;2023-04-25T07:29:54;8.80;99.90
6429;DHT22;3247;48.946;10.220;2023-04-25T07:32:20;8.80;99.90
6429;DHT22;3247;48.946;10.220;2023-04-25T07:34:45;8.80;99.90
6429;DHT22;3247;48.946;10.220;2023-04-25T07:37:11;8.80;99.90
6429;DHT22;3247;48.946;10.220;2023-04-25T07:39:36;8.70;99.90
6429;DHT22;3247;48.946;10.220;2023-04-25T07:42:02;8.60;99.90
6429;DHT22;3247;48.946;10.220;2023-04-25T07:44:29;8.60;99.90
6429;DHT22;3247;48.946;10.220;2023-04-25T07:46:55;8.80;99.90
6429;DHT22;3247;48.946;10.220;2023-04-25T07:49:21;8.80;99.90
6429;DHT22;3247;48.946;10.220;2023-04-25T07:51:47;8.50;99.90
6429;DHT22;3247;48.946;10.220;2023-04-25T07:54:13;8.50;99.90
6429;DHT22;3247;48.946;10.220;2023-04-25T07:56:38;8.40;99.90
6429;DHT22;3247;48.946;10.220;2023-04-25T07:59:04;8.50;99.90
6429;DHT22;3247;48.946;10.220;2023-04-25T08:01:30;8.30;99.90
6429;DHT22;3247;48.946;10.220;2023-04-25T08:03:56;8.40;99.90
6429;DHT22;3247;48.946;10.220;2023-04-25T08:06:21;8.40;99.90
6429;DHT22;3247;48.946;10.220;2023-04-25T08:08:47;8.60;99.90
6429;DHT22;3247;48.946;10.220;2023-04-25T08:11:12;8.50;99.90
6429;DHT22;3247;48.946;10.220;2023-04-25T08:13:37;8.50;99.90
6429;DHT22;3247;48.946;10.220;2023-04-25T08:16:03;8.70;99.90
6429;DHT22;3247;48.946;10.220;2023-04-25T08:18:28;8.70;99.90
6429;DHT22;3247;48.946;10.220;2023-04-25T08:20:54;8.60;99.90
6429;DHT22;3247;48.946;10.220;2023-04-25T08:23:19;8.50;99.90
6429;DHT22;3247;48.946;10.220;2023-04-25T08:25:45;8.50;99.90
6429;DHT22;3247;48.946;10.220;2023-04-25T08:28:10;8.40;99.90
6429;DHT22;3247;48.946;10.220;2023-04-25T08:30:36;8.30;99.90
6429;DHT22;3247;48.946;10.220;2023-04-25T08:33:06;8.50;99.90
6429;DHT22;3247;48.946;10.220;2023-04-25T08:35:32;8.70;99.90
6429;DHT22;3247;48.946;10.220;2023-04-25T08:37:58;8.80;99.90
6429;DHT22;3247;48.946;10.220;2023-04-25T08:40:24;8.90;99.90
6429;DHT22;3247;48.946;10.220;2023-04-25T08:42:54;8.90;99.90
6429;DHT22;3247;48.946;10.220;2023-04-25T08:45:20;8.80;99.90
6429;DHT22;3247;48.946;10.220;2023-04-25T08:47:46;8.50;99.90
6429;DHT22;3247;48.946;10.220;2023-04-25T08:50:13;8.50;99.90
6429;DHT22;3247;48.946;10.220;2023-04-25T08:52:44;8.60;99.90
6429;DHT22;3247;48.946;10.220;2023-04-25T08:55:11;8.80;99.90
6429;DHT22;3247;48.946;10.220;2023-04-25T08:57:37;9.10;99.90
6429;DHT22;3247;48.946;10.220;2023-04-25T09:00:03;9.00;99.90
6429;DHT22;3247;48.946;10.220;2023-04-25T09:02:29;9.20;99.90
6429;DHT22;3247;48.946;10.220;2023-04-25T09:04:55;9.20;99.90
6429;DHT22;3247;48.946;10.220;2023-04-25T09:07:21;9.40;99.90
6429;DHT22;3247;48.946;10.220;2023-04-25T09:09:47;9.50;99.90
6429;DHT22;3247;48.946;10.220;2023-04-25T09:12:12;9.30;99.90
6429;DHT22;3247;48.946;10.220;2023-04-25T09:14:38;9.20;99.90
6429;DHT22;3247;48.946;10.220;2023-04-25T09:17:04;9.20;99.90
6429;DHT22;3247;48.946;10.220;2023-04-25T09:19:36;9.40;99.90
6429;DHT22;3247;48.946;10.220;2023-04-25T09:22:04;9.50;99.90
6429;DHT22;3247;48.946;10.220;2023-04-25T09:24:33;9.70;99.90
6429;DHT22;3247;48.946;10.220;2023-04-25T09:26:59;9.70;99.90
6429;DHT22;3247;48.946;10.220;2023-04-25T09:29:36;9.70;99.90
6429;DHT22;3247;48.946;10.220;2023-04-25T09:32:22;9.50;99.90
6429;DHT22;3247;48.946;10.220;2023-04-25T09:34:48;9.60;99.90
6429;DHT22;3247;48.946;10.220;2023-04-25T09:37:18;9.40;99.90
6429;DHT22;3247;48.946;10.220;2023-04-25T09:39:44;9.50;99.90
6429;DHT22;3247;48.946;10.220;2023-04-25T09:42:11;9.80;99.90
6429;DHT22;3247;48.946;10.220;2023-04-25T09:44:36;10.10;99.90
6429;DHT22;3247;48.946;10.220;2023-04-25T09:47:01;10.30;99.90
6429;DHT22;3247;48.946;10.220;2023-04-25T09:49:28;10.60;99.90
6429;DHT22;3247;48.946;10.220;2023-04-25T09:51:57;10.90;99.90
6429;DHT22;3247;48.946;10.220;2023-04-25T09:54:23;11.20;99.90
6429;DHT22;3247;48.946;10.220;2023-04-25T09:56:48;11.20;99.90
6429;DHT22;3247;48.946;10.220;2023-04-25T09:59:16;10.70;99.90
6429;DHT22;3247;48.946;10.220;2023-04-25T10:01:41;10.50;99.90
6429;DHT22;3247;48.946;10.220;2023-04-25T10:04:09;10.70;99.90
6429;DHT22;3247;48.946;10.220;2023-04-25T10:06:35;10.90;99.90
6429;DHT22;3247;48.946;10.220;2023-04-25T10:09:02;11.50;99.90
6429;DHT22;3247;48.946;10.220;2023-04-25T10:11:29;12.10;99.90
6429;DHT22;3247;48.946;10.220;2023-04-25T10:13:55;12.40;99.90
6429;DHT22;3247;48.946;10.220;2023-04-25T10:16:21;12.80;99.90
6429;DHT22;3247;48.946;10.220;2023-04-25T10:18:47;13.00;99.90
6429;DHT22;3247;48.946;10.220;2023-04-25T10:21:13;13.30;99.90
6429;DHT22;3247;48.946;10.220;2023-04-25T10:23:40;13.30;99.90
6429;DHT22;3247;48.946;10.220;2023-04-25T10:26:05;13.60;99.90
6429;DHT22;3247;48.946;10.220;2023-04-25T10:28:54;13.40;99.90
6429;DHT22;3247;48.946;10.220;2023-04-25T10:31:18;13.10;99.90
6429;DHT22;3247;48.946;10.220;2023-04-25T10:33:43;13.40;99.90
6429;DHT22;3247;48.946;10.220;2023-04-25T10:36:09;13.10;99.90
6429;DHT22;3247;48.946;10.220;2023-04-25T10:38:35;12.50;99.90
6429;DHT22;3247;48.946;10.220;2023-04-25T10:41:02;12.60;99.90
6429;DHT22;3247;48.946;10.220;2023-04-25T10:45:56;12.90;99.90
6429;DHT22;3247;48.946;10.220;2023-04-25T10:48:25;13.00;99.90
6429;DHT22;3247;48.946;10.220;2023-04-25T10:51:06;13.10;99.90
6429;DHT22;3247;48.946;10.220;2023-04-25T10:53:33;12.80;99.90
6429;DHT22;3247;48.946;10.220;2023-04-25T10:55:59;12.20;99.90
6429;DHT22;3247;48.946;10.220;2023-04-25T10:58:24;11.60;99.90
6429;DHT22;3247;48.946;10.220;2023-04-25T11:00:50;11.40;99.90
6429;DHT22;3247;48.946;10.220;2023-04-25T11:03:16;11.00;99.90
6429;DHT22;3247;48.946;10.220;2023-04-25T11:05:41;10.60;99.90
6429;DHT22;3247;48.946;10.220;2023-04-25T11:08:11;10.30;99.90
6429;DHT22;3247;48.946;10.220;2023-04-25T11:10:36;10.10;99.90
6429;DHT22;3247;48.946;10.220;2023-04-25T11:13:02;10.00;99.90
6429;DHT22;3247;48.946;10.220;2023-04-25T11:15:28;9.90;99.90
6429;DHT22;3247;48.946;10.220;2023-04-25T11:17:54;10.10;99.90
6429;DHT22;3247;48.946;10.220;2023-04-25T11:20:19;10.30;99.90
6429;DHT22;3247;48.946;10.220;2023-04-25T11:22:46;10.60;99.90
6429;DHT22;3247;48.946;10.220;2023-04-25T11:25:12;10.80;99.90
6429;DHT22;3247;48.946;10.220;2023-04-25T11:27:50;11.20;99.90
6429;DHT22;3247;48.946;10.220;2023-04-25T11:30:16;11.60;99.90
6429;DHT22;3247;48.946;10.220;2023-04-25T11:32:45;11.80;99.90
6429;DHT22;3247;48.946;10.220;2023-04-25T11:35:10;11.70;99.90
6429;DHT22;3247;48.946;10.220;2023-04-25T11:37:37;11.80;99.90
6429;DHT22;3247;48.946;10.220;2023-04-25T11:40:03;11.90;99.90
6429;DHT22;3247;48.946;10.220;2023-04-25T11:42:31;12.10;99.90
6429;DHT22;3247;48.946;10.220;2023-04-25T11:44:57;12.10;99.90
6429;DHT22;3247;48.946;10.220;2023-04-25T11:47:30;12.70;99.90
6429;DHT22;3247;48.946;10.220;2023-04-25T11:49:57;13.10;99.90
6429;DHT22;3247;48.946;10.220;2023-04-25T11:52:22;13.40;99.90
6429;DHT22;3247;48.946;10.220;2023-04-25T11:54:48;13.80;99.90
6429;DHT22;3247;48.946;10.220;2023-04-25T11:57:13;13.80;99.90
6429;DHT22;3247;48.946;10.220;2023-04-25T11:59:39;13.70;99.90
6429;DHT22;3247;48.946;10.220;2023-04-25T12:02:09;13.50;99.90
6429;DHT22;3247;48.946;10.220;2023-04-25T12:04:48;13.10;99.90
6429;DHT22;3247;48.946;10.220;2023-04-25T12:07:14;12.70;99.90
6429;DHT22;3247;48.946;10.220;2023-04-25T12:09:39;12.40;99.90
6429;DHT22;3247;48.946;10.220;2023-04-25T12:12:09;12.10;99.90
6429;DHT22;3247;48.946;10.220;2023-04-25T12:14:35;11.90;99.90
6429;DHT22;3247;48.946;10.220;2023-04-25T12:17:01;12.00;99.90
6429;DHT22;3247;48.946;10.220;2023-04-25T12:19:34;12.30;99.90
6429;DHT22;3247;48.946;10.220;2023-04-25T12:22:00;12.50;99.90
6429;DHT22;3247;48.946;10.220;2023-04-25T12:24:26;12.40;99.90
6429;DHT22;3247;48.946;10.220;2023-04-25T12:26:53;12.30;99.90
6429;DHT22;3247;48.946;10.220;2023-04-25T12:29:19;12.00;99.90
6429;DHT22;3247;48.946;10.220;2023-04-25T12:31:45;11.90;99.90
6429;DHT22;3247;48.946;10.220;2023-04-25T12:34:10;11.90;99.90
6429;DHT22;3247;48.946;10.220;2023-04-25T12:36:36;12.10;99.90
6429;DHT22;3247;48.946;10.220;2023-04-25T12:39:02;12.10;99.90
6429;DHT22;3247;48.946;10.220;2023-04-25T12:41:29;11.80;99.90
6429;DHT22;3247;48.946;10.220;2023-04-25T12:43:55;11.90;99.90
6429;DHT22;3247;48.946;10.220;2023-04-25T12:46:20;11.80;99.90
6429;DHT22;3247;48.946;10.220;2023-04-25T12:48:46;12.00;99.90
6429;DHT22;3247;48.946;10.220;2023-04-25T12:51:11;12.00;99.90
6429;DHT22;3247;48.946;10.220;2023-04-25T12:53:37;12.00;99.90
6429;DHT22;3247;48.946;10.220;2023-04-25T12:56:04;11.60;99.90
6429;DHT22;3247;48.946;10.220;2023-04-25T12:58:29;11.60;99.90
6429;DHT22;3247;48.946;10.220;2023-04-25T13:00:58;11.50;99.90
6429;DHT22;3247;48.946;10.220;2023-04-25T13:03:23;11.60;99.90
6429;DHT22;3247;48.946;10.220;2023-04-25T13:05:49;11.70;99.90
6429;DHT22;3247;48.946;10.220;2023-04-25T13:08:16;12.00;99.90
6429;DHT22;3247;48.946;10.220;2023-04-25T13:10:41;12.10;99.90
6429;DHT22;3247;48.946;10.220;2023-04-25T13:13:07;12.00;99.90
6429;DHT22;3247;48.946;10.220;2023-04-25T13:15:32;12.50;99.90
6429;DHT22;3247;48.946;10.220;2023-04-25T13:17:58;11.90;99.90
6429;DHT22;3247;48.946;10.220;2023-04-25T13:20:23;11.80;99.90
6429;DHT22;3247;48.946;10.220;2023-04-25T13:22:49;11.80;99.90
6429;DHT22;3247;48.946;10.220;2023-04-25T13:25:15;11.80;99.90
6429;DHT22;3247;48.946;10.220;2023-04-25T13:27:41;11.80;99.90
6429;DHT22;3247;48.946;10.220;2023-04-25T13:30:09;11.50;99.90
6429;DHT22;3247;48.946;10.220;2023-04-25T13:32:35;11.50;99.90
6429;DHT22;3247;48.946;10.220;2023-04-25T13:35:07;11.30;99.90
6429;DHT22;3247;48.946;10.220;2023-04-25T13:37:34;11.20;99.90
6429;DHT22;3247;48.946;10.220;2023-04-25T13:40:00;11.00;99.90
6429;DHT22;3247;48.946;10.220;2023-04-25T13:42:25;11.00;99.90
6429;DHT22;3247;48.946;10.220;2023-04-25T13:44:51;11.00;99.90
6429;DHT22;3247;48.946;10.220;2023-04-25T13:47:16;11.10;99.90
6429;DHT22;3247;48.946;10.220;2023-04-25T13:49:42;11.30;99.90
6429;DHT22;3247;48.946;10.220;2023-04-25T13:52:07;11.40;99.90
6429;DHT22;3247;48.946;10.220;2023-04-25T13:54:33;11.50;99.90
6429;DHT22;3247;48.946;10.220;2023-04-25T13:56:58;11.50;99.90
6429;DHT22;3247;48.946;10.220;2023-04-25T13:59:24;11.40;99.90
6429;DHT22;3247;48.946;10.220;2023-04-25T14:01:51;11.20;99.90
6429;DHT22;3247;48.946;10.220;2023-04-25T14:04:16;10.90;99.90
6429;DHT22;3247;48.946;10.220;2023-04-25T14:06:42;10.90;99.90
6429;DHT22;3247;48.946;10.220;2023-04-25T14:09:07;10.60;99.90
6429;DHT22;3247;48.946;10.220;2023-04-25T14:11:38;10.00;99.90
6429;DHT22;3247;48.946;10.220;2023-04-25T14:14:04;9.90;99.90
6429;DHT22;3247;48.946;10.220;2023-04-25T14:16:30;9.50;99.90
6429;DHT22;3247;48.946;10.220;2023-04-25T14:18:59;9.50;99.90
6429;DHT22;3247;48.946;10.220;2023-04-25T14:21:25;9.20;99.90
6429;DHT22;3247;48.946;10.220;2023-04-25T14:23:52;8.90;99.90
6429;DHT22;3247;48.946;10.220;2023-04-25T14:26:17;8.60;99.90
6429;DHT22;3247;48.946;10.220;2023-04-25T14:28:43;8.40;99.90
6429;DHT22;3247;48.946;10.220;2023-04-25T14:31:08;8.40;99.90
6429;DHT22;3247;48.946;10.220;2023-04-25T14:33:34;8.50;99.90
6429;DHT22;3247;48.946;10.220;2023-04-25T14:36:00;8.60;99.90
6429;DHT22;3247;48.946;10.220;2023-04-25T14:38:25;8.60;99.90
6429;DHT22;3247;48.946;10.220;2023-04-25T14:40:52;8.70;99.90
6429;DHT22;3247;48.946;10.220;2023-04-25T14:43:19;9.00;99.90
6429;DHT22;3247;48.946;10.220;2023-04-25T14:45:44;9.10;99.90
6429;DHT22;3247;48.946;10.220;2023-04-25T14:48:10;9.20;99.90
6429;DHT22;3247;48.946;10.220;2023-04-25T14:50:35;9.40;99.90
6429;DHT22;3247;48.946;10.220;2023-04-25T14:53:01;9.50;99.90
6429;DHT22;3247;48.946;10.220;2023-04-25T14:55:27;9.60;99.90
6429;DHT22;3247;48.946;10.220;2023-04-25T14:57:53;9.60;99.90
6429;DHT22;3247;48.946;10.220;2023-04-25T15:00:18;9.60;99.90
6429;DHT22;3247;48.946;10.220;2023-04-25T15:02:48;9.50;99.90
6429;DHT22;3247;48.946;10.220;2023-04-25T15:05:14;9.40;99.90
6429;DHT22;3247;48.946;10.220;2023-04-25T15:07:40;9.30;99.90
6429;DHT22;3247;48.946;10.220;2023-04-25T15:10:09;9.30;99.90
6429;DHT22;3247;48.946;10.220;2023-04-25T15:12:41;9.20;99.90
6429;DHT22;3247;48.946;10.220;2023-04-25T15:15:07;9.10;99.90
6429;DHT22;3247;48.946;10.220;2023-04-25T15:17:37;9.00;99.90
6429;DHT22;3247;48.946;10.220;2023-04-25T15:20:02;9.00;99.90
6429;DHT22;3247;48.946;10.220;2023-04-25T15:22:30;9.00;99.90
6429;DHT22;3247;48.946;10.220;2023-04-25T15:24:56;9.00;99.90
6429;DHT22;3247;48.946;10.220;2023-04-25T15:27:22;9.00;99.90
6429;DHT22;3247;48.946;10.220;2023-04-25T15:29:48;9.00;99.90
6429;DHT22;3247;48.946;10.220;2023-04-25T15:32:16;9.10;99.90
6429;DHT22;3247;48.946;10.220;2023-04-25T15:34:42;9.30;99.90
6429;DHT22;3247;48.946;10.220;2023-04-25T15:37:07;9.40;99.90
6429;DHT22;3247;48.946;10.220;2023-04-25T15:39:33;9.60;99.90
6429;DHT22;3247;48.946;10.220;2023-04-25T15:41:58;9.70;99.90
6429;DHT22;3247;48.946;10.220;2023-04-25T15:44:24;9.80;99.90
6429;DHT22;3247;48.946;10.220;2023-04-25T15:46:49;9.70;99.90
6429;DHT22;3247;48.946;10.220;2023-04-25T15:49:15;9.80;99.90
6429;DHT22;3247;48.946;10.220;2023-04-25T15:51:40;9.80;99.90
6429;DHT22;3247;48.946;10.220;2023-04-25T15:54:06;9.80;99.90